createdAt,value
2019-05-12T00:00:53.540Z,816.30
2019-05-12T00:01:53.547Z,816.23
2019-05-12T00:02:53.548Z,816.20
2019-05-12T00:03:53.555Z,816.18
2019-05-12T00:04:53.568Z,816.17
2019-05-12T00:05:53.571Z,816.17
2019-05-12T00:06:53.602Z,816.21
2019-05-12T00:07:53.581Z,816.29
2019-05-12T00:08:53.587Z,816.23
2019-05-12T00:09:53.593Z,816.27
2019-05-12T00:10:53.599Z,816.26
2019-05-12T00:11:53.607Z,816.25
2019-05-12T00:12:53.618Z,816.25
2019-05-12T00:13:53.618Z,816.24
2019-05-12T00:14:53.653Z,816.27
2019-05-12T00:15:53.632Z,816.27
2019-05-12T00:16:53.640Z,816.28
2019-05-12T00:17:53.646Z,816.29
2019-05-12T00:18:53.664Z,816.31
2019-05-12T00:19:53.662Z,816.34
2019-05-12T00:20:53.664Z,816.30
2019-05-12T00:21:53.673Z,816.23
2019-05-12T00:22:53.680Z,816.18
2019-05-12T00:23:53.690Z,816.27
2019-05-12T00:24:53.693Z,816.29
2019-05-12T00:25:53.697Z,816.25
2019-05-12T00:26:53.702Z,816.24
2019-05-12T00:27:53.713Z,816.26
2019-05-12T00:28:53.722Z,816.21
2019-05-12T00:29:53.724Z,816.25
2019-05-12T00:30:53.733Z,816.22
2019-05-12T00:31:53.737Z,816.21
2019-05-12T00:32:53.743Z,816.22
2019-05-12T00:33:53.751Z,816.19
2019-05-12T00:34:53.759Z,816.17
2019-05-12T00:35:53.766Z,816.15
2019-05-12T00:36:53.772Z,816.19
2019-05-12T00:37:53.782Z,816.14
2019-05-12T00:38:53.789Z,816.16
2019-05-12T00:39:53.791Z,816.15
2019-05-12T00:40:53.795Z,816.13
2019-05-12T00:41:53.803Z,816.13
2019-05-12T00:42:53.811Z,816.15
2019-05-12T00:43:53.815Z,816.08
2019-05-12T00:44:53.823Z,816.12
2019-05-12T00:45:53.827Z,816.14
2019-05-12T00:46:53.835Z,816.18
2019-05-12T00:47:53.842Z,816.27
2019-05-12T00:48:53.846Z,816.18
2019-05-12T00:49:53.855Z,816.10
2019-05-12T00:50:53.862Z,816.10
2019-05-12T00:51:53.864Z,816.07
2019-05-12T00:52:53.874Z,816.13
2019-05-12T00:53:53.878Z,816.14
2019-05-12T00:54:53.884Z,816.19
2019-05-12T00:55:53.902Z,816.22
2019-05-12T00:56:53.902Z,816.18
2019-05-12T00:57:53.908Z,816.12
2019-05-12T00:58:53.915Z,816.14
2019-05-12T00:59:53.918Z,816.23
2019-05-12T01:00:53.933Z,816.22
2019-05-12T01:01:53.935Z,816.21
2019-05-12T01:02:53.943Z,816.25
2019-05-12T01:03:53.944Z,816.31
2019-05-12T01:04:53.956Z,816.29
2019-05-12T01:05:53.961Z,816.28
2019-05-12T01:06:53.969Z,816.29
2019-05-12T01:07:53.972Z,816.34
2019-05-12T01:08:53.981Z,816.32
2019-05-12T01:09:53.984Z,816.34
2019-05-12T01:10:53.990Z,816.34
2019-05-12T01:11:53.996Z,816.37
2019-05-12T01:12:54.003Z,816.40
2019-05-12T01:13:54.013Z,816.38
2019-05-12T01:14:54.020Z,816.40
2019-05-12T01:15:54.023Z,816.38
2019-05-12T01:16:54.030Z,816.36
2019-05-12T01:17:54.040Z,816.39
2019-05-12T01:18:54.043Z,816.38
2019-05-12T01:19:54.054Z,816.39
2019-05-12T01:20:54.057Z,816.34
2019-05-12T01:21:54.063Z,816.38
2019-05-12T01:22:54.076Z,816.40
2019-05-12T01:24:02.610Z,816.44
2019-05-12T01:24:54.089Z,816.42
2019-05-12T01:25:54.093Z,816.44
2019-05-12T01:26:54.099Z,816.47
2019-05-12T01:27:54.107Z,816.48
2019-05-12T01:28:54.141Z,816.50
2019-05-12T01:29:54.115Z,816.52
2019-05-12T01:30:54.128Z,816.55
2019-05-12T01:31:54.135Z,816.54
2019-05-12T01:32:54.137Z,816.55
2019-05-12T01:33:54.146Z,816.55
2019-05-12T01:34:54.152Z,816.53
2019-05-12T01:35:54.166Z,816.53
2019-05-12T01:36:54.167Z,816.48
2019-05-12T01:37:54.174Z,816.44
2019-05-12T01:38:54.180Z,816.52
2019-05-12T01:39:54.189Z,816.54
2019-05-12T01:40:54.195Z,816.60
2019-05-12T01:41:54.198Z,816.56
2019-05-12T01:42:54.201Z,816.55
2019-05-12T01:43:54.212Z,816.55
2019-05-12T01:44:54.219Z,816.55
2019-05-12T01:45:54.226Z,816.58
2019-05-12T01:46:54.231Z,816.63
2019-05-12T01:47:54.239Z,816.64
2019-05-12T01:48:54.242Z,816.65
2019-05-12T01:49:54.248Z,816.63
2019-05-12T01:50:54.259Z,816.63
2019-05-12T01:51:54.266Z,816.67
2019-05-12T01:52:54.273Z,816.67
2019-05-12T01:54:08.553Z,816.72
2019-05-12T01:54:54.284Z,816.65
2019-05-12T01:55:54.286Z,816.66
2019-05-12T01:56:54.301Z,816.67
2019-05-12T01:57:54.307Z,816.64
2019-05-12T01:58:54.308Z,816.69
2019-05-12T01:59:54.317Z,816.68
2019-05-12T02:00:54.328Z,816.71
2019-05-12T02:01:54.330Z,816.73
2019-05-12T02:02:54.334Z,816.78
2019-05-12T02:03:54.345Z,816.72
2019-05-12T02:04:54.352Z,816.78
2019-05-12T02:05:54.351Z,816.75
2019-05-12T02:06:54.358Z,816.78
2019-05-12T02:07:54.365Z,816.81
2019-05-12T02:08:54.373Z,816.81
2019-05-12T02:09:54.377Z,816.77
2019-05-12T02:10:54.393Z,816.77
2019-05-12T02:11:54.398Z,816.77
2019-05-12T02:12:54.403Z,816.79
2019-05-12T02:13:54.408Z,816.74
2019-05-12T02:14:54.416Z,816.77
2019-05-12T02:15:54.417Z,816.78
2019-05-12T02:16:54.427Z,816.81
2019-05-12T02:17:54.434Z,816.82
2019-05-12T02:18:54.441Z,816.83
2019-05-12T02:19:54.442Z,816.83
2019-05-12T02:20:54.453Z,816.82
2019-05-12T02:21:54.461Z,816.82
2019-05-12T02:22:54.461Z,816.85
2019-05-12T02:23:54.467Z,816.93
2019-05-12T02:24:54.480Z,816.92
2019-05-12T02:25:54.485Z,816.96
2019-05-12T02:26:54.487Z,817.00
2019-05-12T02:27:54.493Z,817.02
2019-05-12T02:28:54.501Z,817.03
2019-05-12T02:29:54.504Z,817.07
2019-05-12T02:30:54.512Z,817.07
2019-05-12T02:31:54.518Z,817.09
2019-05-12T02:32:58.776Z,817.11
2019-05-12T02:33:55.011Z,817.13
2019-05-12T02:34:54.865Z,817.09
2019-05-12T02:35:54.944Z,817.11
2019-05-12T02:36:55.511Z,817.15
2019-05-12T02:37:55.188Z,817.14
2019-05-12T02:38:56.006Z,817.05
2019-05-12T02:39:55.542Z,817.07
2019-05-12T02:40:55.399Z,817.05
2019-05-12T02:41:54.580Z,817.05
2019-05-12T02:42:55.192Z,817.08
2019-05-12T02:43:55.304Z,817.05
2019-05-12T02:44:55.274Z,817.06
2019-05-12T02:45:54.865Z,816.98
2019-05-12T02:46:55.333Z,817.02
2019-05-12T02:47:54.812Z,816.98
2019-05-12T02:48:54.842Z,816.97
2019-05-12T02:49:54.661Z,816.98
2019-05-12T02:50:54.686Z,816.97
2019-05-12T02:51:54.844Z,816.97
2019-05-12T02:52:54.752Z,816.99
2019-05-12T02:53:54.728Z,816.94
2019-05-12T02:55:00.334Z,816.96
2019-05-12T02:55:54.674Z,816.93
2019-05-12T02:56:55.140Z,816.93
2019-05-12T02:57:55.170Z,816.96
2019-05-12T02:58:54.690Z,816.94
2019-05-12T02:59:54.695Z,816.96
2019-05-12T03:00:54.854Z,816.93
2019-05-12T03:01:55.197Z,816.93
2019-05-12T03:02:54.938Z,816.88
2019-05-12T03:03:55.008Z,816.86
2019-05-12T03:04:55.084Z,816.84
2019-05-12T03:05:55.039Z,816.82
2019-05-12T03:06:55.021Z,816.83
2019-05-12T03:07:55.320Z,816.87
2019-05-12T03:08:55.162Z,816.84
2019-05-12T03:09:55.154Z,816.80
2019-05-12T03:10:55.114Z,816.78
2019-05-12T03:11:55.660Z,816.79
2019-05-12T03:12:55.027Z,816.76
2019-05-12T03:13:54.959Z,816.80
2019-05-12T03:14:54.790Z,816.84
2019-05-12T03:15:55.079Z,816.87
2019-05-12T03:16:54.801Z,816.84
2019-05-12T03:17:54.804Z,816.95
2019-05-12T03:18:55.422Z,816.90
2019-05-12T03:19:55.705Z,816.91
2019-05-12T03:20:54.853Z,816.89
2019-05-12T03:21:54.942Z,816.84
2019-05-12T03:22:55.503Z,816.82
2019-05-12T03:23:55.237Z,816.79
2019-05-12T03:25:07.806Z,816.84
2019-05-12T03:25:54.985Z,816.83
2019-05-12T03:26:55.433Z,816.82
2019-05-12T03:27:54.867Z,816.82
2019-05-12T03:28:55.698Z,816.83
2019-05-12T03:29:55.387Z,816.80
2019-05-12T03:30:57.816Z,816.88
2019-05-12T03:31:57.002Z,816.91
2019-05-12T03:32:57.930Z,816.88
2019-05-12T03:33:59.912Z,816.80
2019-05-12T03:34:57.981Z,816.78
2019-05-12T03:36:00.692Z,816.77
2019-05-12T03:36:59.033Z,816.70
2019-05-12T03:37:54.937Z,816.71
2019-05-12T03:38:55.277Z,816.74
2019-05-12T03:39:54.937Z,816.80
2019-05-12T03:40:55.185Z,816.78
2019-05-12T03:41:54.951Z,816.81
2019-05-12T03:42:55.034Z,816.80
2019-05-12T03:43:55.107Z,816.85
2019-05-12T03:44:54.972Z,816.82
2019-05-12T03:45:55.990Z,816.83
2019-05-12T03:46:54.988Z,816.83
2019-05-12T03:47:54.987Z,816.86
2019-05-12T03:48:55.526Z,816.90
2019-05-12T03:49:54.998Z,816.87
2019-05-12T03:50:55.002Z,816.85
2019-05-12T03:51:55.013Z,816.83
2019-05-12T03:52:56.581Z,816.93
2019-05-12T03:53:55.893Z,816.90
2019-05-12T03:54:56.034Z,816.94
2019-05-12T03:55:55.411Z,816.88
2019-05-12T03:56:55.749Z,816.88
2019-05-12T03:57:55.265Z,816.85
2019-05-12T03:58:55.059Z,816.87
2019-05-12T03:59:55.063Z,816.91
2019-05-12T04:00:55.447Z,816.94
2019-05-12T04:01:55.303Z,816.98
2019-05-12T04:02:55.733Z,817.02
2019-05-12T04:03:55.084Z,816.96
2019-05-12T04:04:55.548Z,816.98
2019-05-12T04:05:55.494Z,817.04
2019-05-12T04:06:55.097Z,816.96
2019-05-12T04:07:55.102Z,816.95
2019-05-12T04:08:59.734Z,816.92
2019-05-12T04:09:55.115Z,816.93
2019-05-12T04:10:55.146Z,816.97
2019-05-12T04:11:55.127Z,817.00
2019-05-12T04:12:55.140Z,817.03
2019-05-12T04:13:55.312Z,816.98
2019-05-12T04:14:55.329Z,817.00
2019-05-12T04:15:55.802Z,817.07
2019-05-12T04:16:55.348Z,817.08
2019-05-12T04:17:55.166Z,817.08
2019-05-12T04:18:55.416Z,817.14
2019-05-12T04:19:55.180Z,817.10
2019-05-12T04:20:55.191Z,817.06
2019-05-12T04:21:55.192Z,817.05
2019-05-12T04:22:55.194Z,817.01
2019-05-12T04:23:55.202Z,817.00
2019-05-12T04:24:55.382Z,817.02
2019-05-12T04:26:07.050Z,817.01
2019-05-12T04:26:55.386Z,817.09
2019-05-12T04:27:55.230Z,817.06
2019-05-12T04:28:55.241Z,817.06
2019-05-12T04:29:55.246Z,817.07
2019-05-12T04:30:55.244Z,817.11
2019-05-12T04:31:55.243Z,817.03
2019-05-12T04:32:55.465Z,817.08
2019-05-12T04:33:55.261Z,817.06
2019-05-12T04:34:55.388Z,817.12
2019-05-12T04:35:55.615Z,817.08
2019-05-12T04:36:55.629Z,817.09
2019-05-12T04:37:55.675Z,817.09
2019-05-12T04:38:55.865Z,817.09
2019-05-12T04:39:55.552Z,817.07
2019-05-12T04:40:55.531Z,816.97
2019-05-12T04:41:55.379Z,817.01
2019-05-12T04:42:55.318Z,817.01
2019-05-12T04:43:55.320Z,817.05
2019-05-12T04:44:55.388Z,817.04
2019-05-12T04:45:55.348Z,817.10
2019-05-12T04:46:55.627Z,817.14
2019-05-12T04:47:55.384Z,817.18
2019-05-12T04:48:55.346Z,817.20
2019-05-12T04:49:55.352Z,817.21
2019-05-12T04:50:55.374Z,817.17
2019-05-12T04:51:55.370Z,817.17
2019-05-12T04:52:55.373Z,817.16
2019-05-12T04:53:55.390Z,817.16
2019-05-12T04:54:55.421Z,817.24
2019-05-12T04:56:09.779Z,817.23
2019-05-12T04:56:55.396Z,817.26
2019-05-12T04:57:55.408Z,817.17
2019-05-12T04:58:55.416Z,817.14
2019-05-12T04:59:55.414Z,817.18
2019-05-12T05:00:55.421Z,817.22
2019-05-12T05:01:55.425Z,817.25
2019-05-12T05:02:55.436Z,817.26
2019-05-12T05:03:55.460Z,817.26
2019-05-12T05:04:55.446Z,817.21
2019-05-12T05:05:55.448Z,817.26
2019-05-12T05:06:55.459Z,817.30
2019-05-12T05:07:55.465Z,817.28
2019-05-12T05:08:55.474Z,817.27
2019-05-12T05:09:55.471Z,817.33
2019-05-12T05:10:55.479Z,817.35
2019-05-12T05:11:55.488Z,817.40
2019-05-12T05:12:55.495Z,817.37
2019-05-12T05:13:55.494Z,817.34
2019-05-12T05:14:55.502Z,817.37
2019-05-12T05:15:55.514Z,817.38
2019-05-12T05:16:55.517Z,817.44
2019-05-12T05:17:55.523Z,817.51
2019-05-12T05:18:55.524Z,817.46
2019-05-12T05:19:55.530Z,817.49
2019-05-12T05:20:55.536Z,817.49
2019-05-12T05:21:55.542Z,817.51
2019-05-12T05:22:55.549Z,817.55
2019-05-12T05:23:55.559Z,817.62
2019-05-12T05:24:55.561Z,817.63
2019-05-12T05:25:55.566Z,817.60
2019-05-12T05:26:55.577Z,817.59
2019-05-12T05:27:55.582Z,817.59
2019-05-12T05:28:55.586Z,817.60
2019-05-12T05:29:55.589Z,817.54
2019-05-12T05:30:55.600Z,817.56
2019-05-12T05:31:55.601Z,817.59
2019-05-12T05:32:55.608Z,817.53
2019-05-12T05:33:55.613Z,817.54
2019-05-12T05:34:57.826Z,817.56
2019-05-12T05:35:55.631Z,817.61
2019-05-12T05:37:01.249Z,817.66
2019-05-12T05:37:55.638Z,817.75
2019-05-12T05:38:59.692Z,817.75
2019-05-12T05:39:55.655Z,817.77
2019-05-12T05:40:59.771Z,817.71
2019-05-12T05:41:55.662Z,817.71
2019-05-12T05:42:55.672Z,817.66
2019-05-12T05:43:58.411Z,817.60
2019-05-12T05:44:55.705Z,817.67
2019-05-12T05:46:02.887Z,817.66
2019-05-12T05:46:56.763Z,817.60
2019-05-12T05:47:59.607Z,817.61
2019-05-12T05:48:55.710Z,817.58
2019-05-12T05:49:55.715Z,817.55
2019-05-12T05:50:59.976Z,817.60
2019-05-12T05:51:57.596Z,817.67
2019-05-12T05:52:55.735Z,817.70
2019-05-12T05:53:55.736Z,817.72
2019-05-12T05:54:55.752Z,817.74
2019-05-12T05:56:00.104Z,817.73
2019-05-12T05:56:59.716Z,817.70
2019-05-12T05:57:59.860Z,817.70
2019-05-12T05:58:55.772Z,817.70
2019-05-12T05:59:55.772Z,817.70
2019-05-12T06:01:02.861Z,817.65
2019-05-12T06:01:55.789Z,817.66
2019-05-12T06:02:55.796Z,817.67
2019-05-12T06:03:58.310Z,817.72
2019-05-12T06:04:56.395Z,817.67
2019-05-12T06:05:55.809Z,817.77
2019-05-12T06:06:56.139Z,817.79
2019-05-12T06:07:55.822Z,817.78
2019-05-12T06:08:55.834Z,817.83
2019-05-12T06:09:55.834Z,817.79
2019-05-12T06:10:55.844Z,817.79
2019-05-12T06:11:59.118Z,817.87
2019-05-12T06:12:55.854Z,817.82
2019-05-12T06:13:55.862Z,817.92
2019-05-12T06:14:59.851Z,817.99
2019-05-12T06:15:55.874Z,817.99
2019-05-12T06:16:55.882Z,817.93
2019-05-12T06:17:55.886Z,817.95
2019-05-12T06:18:55.895Z,817.96
2019-05-12T06:19:55.898Z,817.97
2019-05-12T06:20:55.905Z,817.96
2019-05-12T06:21:55.914Z,817.97
2019-05-12T06:22:57.575Z,817.98
2019-05-12T06:23:55.927Z,817.93
2019-05-12T06:24:58.893Z,817.92
2019-05-12T06:25:55.936Z,817.97
2019-05-12T06:27:00.405Z,817.93
2019-05-12T06:28:00.017Z,817.94
2019-05-12T06:28:57.742Z,817.93
2019-05-12T06:30:00.873Z,818.01
2019-05-12T06:30:58.315Z,818.06
2019-05-12T06:31:59.950Z,818.06
2019-05-12T06:32:55.978Z,818.10
2019-05-12T06:33:55.989Z,818.11
2019-05-12T06:35:01.361Z,818.06
2019-05-12T06:35:55.998Z,818.06
2019-05-12T06:36:57.275Z,818.05
2019-05-12T06:38:01.336Z,818.05
2019-05-12T06:38:56.027Z,818.06
2019-05-12T06:40:00.384Z,818.02
2019-05-12T06:40:56.029Z,818.06
2019-05-12T06:42:01.868Z,818.11
2019-05-12T06:42:57.199Z,818.11
2019-05-12T06:43:56.053Z,818.12
2019-05-12T06:44:58.144Z,818.18
2019-05-12T06:45:56.061Z,818.16
2019-05-12T06:47:03.620Z,818.14
2019-05-12T06:47:56.176Z,818.12
2019-05-12T06:49:00.727Z,818.06
2019-05-12T06:49:58.101Z,818.10
2019-05-12T06:50:56.098Z,818.10
2019-05-12T06:52:01.578Z,818.08
2019-05-12T06:52:56.112Z,818.09
2019-05-12T06:53:56.113Z,818.12
2019-05-12T06:54:56.810Z,818.07
2019-05-12T06:55:56.126Z,818.10
2019-05-12T06:57:16.517Z,818.15
2019-05-12T06:57:56.143Z,818.15
2019-05-12T06:58:56.148Z,818.17
2019-05-12T06:59:56.151Z,818.19
2019-05-12T07:00:56.163Z,818.18
2019-05-12T07:02:00.450Z,818.16
2019-05-12T07:02:56.174Z,818.18
2019-05-12T07:04:00.643Z,818.12
2019-05-12T07:04:59.357Z,818.18
2019-05-12T07:05:56.190Z,818.14
2019-05-12T07:07:00.590Z,818.12
2019-05-12T07:07:56.204Z,818.17
2019-05-12T07:09:08.528Z,818.18
2019-05-12T07:10:02.316Z,818.18
2019-05-12T07:11:01.795Z,818.14
2019-05-12T07:12:02.713Z,818.17
2019-05-12T07:13:01.689Z,818.17
2019-05-12T07:14:04.494Z,818.16
2019-05-12T07:14:58.571Z,818.16
2019-05-12T07:15:56.261Z,818.19
2019-05-12T07:17:01.529Z,818.20
2019-05-12T07:17:56.272Z,818.12
2019-05-12T07:18:56.276Z,818.14
2019-05-12T07:19:58.161Z,818.15
2019-05-12T07:20:56.293Z,818.12
2019-05-12T07:21:59.888Z,818.15
2019-05-12T07:22:56.306Z,818.16
2019-05-12T07:24:00.422Z,818.15
2019-05-12T07:24:56.318Z,818.20
2019-05-12T07:25:56.326Z,818.22
2019-05-12T07:27:04.348Z,818.26
2019-05-12T07:28:00.840Z,818.28
2019-05-12T07:28:56.343Z,818.20
2019-05-12T07:29:56.348Z,818.18
2019-05-12T07:30:56.360Z,818.17
2019-05-12T07:31:56.363Z,818.22
2019-05-12T07:32:59.915Z,818.22
2019-05-12T07:33:56.375Z,818.22
2019-05-12T07:34:56.387Z,818.26
2019-05-12T07:36:01.340Z,818.22
2019-05-12T07:36:56.397Z,818.21
2019-05-12T07:37:56.411Z,818.24
2019-05-12T07:39:04.050Z,818.23
2019-05-12T07:39:56.419Z,818.27
2019-05-12T07:41:00.849Z,818.25
2019-05-12T07:41:56.436Z,818.26
2019-05-12T07:42:56.442Z,818.27
2019-05-12T07:44:00.684Z,818.28
2019-05-12T07:44:58.025Z,818.26
2019-05-12T07:46:02.512Z,818.31
2019-05-12T07:46:56.470Z,818.36
2019-05-12T07:47:59.343Z,818.33
2019-05-12T07:48:56.483Z,818.26
2019-05-12T07:49:56.507Z,818.31
2019-05-12T07:51:00.601Z,818.29
2019-05-12T07:51:56.508Z,818.31
2019-05-12T07:52:56.512Z,818.35
2019-05-12T07:53:59.024Z,818.34
2019-05-12T07:54:56.536Z,818.35
2019-05-12T07:55:56.551Z,818.32
2019-05-12T07:56:56.545Z,818.35
2019-05-12T07:58:04.012Z,818.30
2019-05-12T07:58:57.206Z,818.33
2019-05-12T07:59:56.570Z,818.33
2019-05-12T08:01:02.324Z,818.33
2019-05-12T08:01:56.585Z,818.37
2019-05-12T08:02:56.601Z,818.34
2019-05-12T08:04:01.167Z,818.31
2019-05-12T08:04:56.604Z,818.34
2019-05-12T08:06:01.359Z,818.36
2019-05-12T08:06:56.620Z,818.39
2019-05-12T08:08:00.610Z,818.38
2019-05-12T08:08:59.057Z,818.32
2019-05-12T08:09:56.650Z,818.34
2019-05-12T08:10:56.655Z,818.31
2019-05-12T08:11:56.665Z,818.27
2019-05-12T08:13:00.658Z,818.29
2019-05-12T08:13:56.680Z,818.35
2019-05-12T08:14:59.361Z,818.35
2019-05-12T08:15:56.693Z,818.32
2019-05-12T08:17:02.106Z,818.39
2019-05-12T08:17:59.560Z,818.35
2019-05-12T08:18:56.720Z,818.37
2019-05-12T08:19:56.729Z,818.34
2019-05-12T08:20:59.876Z,818.33
2019-05-12T08:21:56.746Z,818.34
2019-05-12T08:22:59.506Z,818.38
2019-05-12T08:23:56.758Z,818.38
2019-05-12T08:24:56.778Z,818.35
2019-05-12T08:25:56.776Z,818.43
2019-05-12T08:27:03.316Z,818.41
2019-05-12T08:28:10.175Z,818.43
2019-05-12T08:28:56.799Z,818.42
2019-05-12T08:30:01.155Z,818.41
2019-05-12T08:30:56.816Z,818.36
2019-05-12T08:31:56.841Z,818.38
2019-05-12T08:33:07.242Z,818.39
2019-05-12T08:33:56.842Z,818.40
2019-05-12T08:34:56.852Z,818.43
2019-05-12T08:35:56.857Z,818.44
2019-05-12T08:36:58.112Z,818.44
2019-05-12T08:37:56.871Z,818.41
2019-05-12T08:38:56.883Z,818.41
2019-05-12T08:40:03.303Z,818.37
2019-05-12T08:40:56.900Z,818.43
2019-05-12T08:41:56.911Z,818.42
2019-05-12T08:42:59.350Z,818.40
2019-05-12T08:43:58.449Z,818.38
2019-05-12T08:44:56.936Z,818.41
2019-05-12T08:46:00.344Z,818.39
2019-05-12T08:46:56.951Z,818.41
2019-05-12T08:47:56.960Z,818.41
2019-05-12T08:49:00.867Z,818.42
2019-05-12T08:49:58.741Z,818.46
2019-05-12T08:50:56.980Z,818.44
2019-05-12T08:52:00.144Z,818.46
2019-05-12T08:52:57.001Z,818.45
2019-05-12T08:54:02.595Z,818.46
2019-05-12T08:54:57.016Z,818.48
2019-05-12T08:55:57.024Z,818.55
2019-05-12T08:57:01.050Z,818.52
2019-05-12T08:57:57.037Z,818.60
2019-05-12T08:58:57.060Z,818.59
2019-05-12T09:00:02.818Z,818.55
2019-05-12T09:00:57.062Z,818.61
2019-05-12T09:02:00.481Z,818.60
2019-05-12T09:02:57.083Z,818.60
2019-05-12T09:04:00.477Z,818.63
2019-05-12T09:04:57.097Z,818.60
2019-05-12T09:05:57.109Z,818.58
2019-05-12T09:06:59.815Z,818.60
2019-05-12T09:07:57.121Z,818.68
2019-05-12T09:08:57.138Z,818.70
2019-05-12T09:09:57.139Z,818.74
2019-05-12T09:10:57.147Z,818.74
2019-05-12T09:11:57.155Z,818.72
2019-05-12T09:12:57.168Z,818.74
2019-05-12T09:14:00.514Z,818.73
2019-05-12T09:14:57.185Z,818.76
2019-05-12T09:15:57.193Z,818.77
2019-05-12T09:17:02.155Z,818.79
2019-05-12T09:17:57.208Z,818.69
2019-05-12T09:18:57.220Z,818.73
2019-05-12T09:20:03.554Z,818.71
2019-05-12T09:20:57.238Z,818.76
2019-05-12T09:21:57.244Z,818.77
2019-05-12T09:23:00.577Z,818.79
2019-05-12T09:23:57.265Z,818.76
2019-05-12T09:24:58.338Z,818.81
2019-05-12T09:25:57.511Z,818.79
2019-05-12T09:26:59.084Z,818.74
2019-05-12T09:27:57.302Z,818.72
2019-05-12T09:28:57.315Z,818.75
2019-05-12T09:29:59.138Z,818.68
2019-05-12T09:30:57.453Z,818.74
2019-05-12T09:31:59.128Z,818.78
2019-05-12T09:32:57.343Z,818.81
2019-05-12T09:33:57.957Z,818.82
2019-05-12T09:34:58.154Z,818.81
2019-05-12T09:35:57.376Z,818.86
2019-05-12T09:36:59.661Z,818.82
2019-05-12T09:37:57.389Z,818.78
2019-05-12T09:39:01.513Z,818.81
2019-05-12T09:39:57.406Z,818.83
2019-05-12T09:41:01.390Z,818.85
2019-05-12T09:41:57.430Z,818.87
2019-05-12T09:43:00.161Z,818.92
2019-05-12T09:43:57.443Z,818.94
2019-05-12T09:45:00.078Z,818.94
2019-05-12T09:45:57.456Z,818.91
2019-05-12T09:46:57.465Z,818.95
2019-05-12T09:47:58.899Z,818.92
2019-05-12T09:48:57.488Z,818.95
2019-05-12T09:49:57.495Z,818.96
2019-05-12T09:51:01.944Z,818.97
2019-05-12T09:51:57.510Z,818.97
2019-05-12T09:53:00.935Z,818.94
2019-05-12T09:53:57.526Z,818.94
2019-05-12T09:54:57.539Z,818.92
2019-05-12T09:55:58.567Z,818.90
2019-05-12T09:56:59.505Z,818.96
2019-05-12T09:57:57.560Z,818.95
2019-05-12T09:59:01.825Z,818.91
2019-05-12T09:59:59.442Z,818.92
2019-05-12T10:00:57.587Z,818.91
2019-05-12T10:01:57.594Z,818.90
2019-05-12T10:03:00.706Z,818.90
2019-05-12T10:03:57.616Z,818.96
2019-05-12T10:05:00.746Z,818.96
2019-05-12T10:05:57.633Z,818.94
2019-05-12T10:06:57.636Z,818.94
2019-05-12T10:07:57.646Z,818.94
2019-05-12T10:08:57.665Z,818.88
2019-05-12T10:09:59.165Z,818.93
2019-05-12T10:10:57.670Z,818.92
2019-05-12T10:12:00.834Z,818.92
2019-05-12T10:12:57.691Z,818.99
2019-05-12T10:14:00.229Z,819.02
2019-05-12T10:14:57.705Z,818.98
2019-05-12T10:15:58.687Z,818.99
2019-05-12T10:16:57.724Z,818.99
2019-05-12T10:18:00.179Z,819.07
2019-05-12T10:18:57.741Z,819.05
2019-05-12T10:19:58.195Z,819.07
2019-05-12T10:20:57.758Z,819.01
2019-05-12T10:21:59.374Z,819.01
2019-05-12T10:22:57.771Z,819.03
2019-05-12T10:24:01.763Z,819.05
2019-05-12T10:24:58.719Z,819.04
2019-05-12T10:26:01.372Z,819.05
2019-05-12T10:26:57.811Z,819.05
2019-05-12T10:28:05.277Z,819.06
2019-05-12T10:28:58.509Z,819.09
2019-05-12T10:30:03.280Z,819.08
2019-05-12T10:30:57.850Z,819.11
2019-05-12T10:31:57.851Z,819.11
2019-05-12T10:32:57.865Z,819.21
2019-05-12T10:33:58.335Z,819.12
2019-05-12T10:34:57.882Z,819.07
2019-05-12T10:35:59.383Z,819.07
2019-05-12T10:36:57.899Z,819.08
2019-05-12T10:38:00.174Z,819.10
2019-05-12T10:38:57.914Z,819.05
2019-05-12T10:39:57.923Z,819.14
2019-05-12T10:40:57.936Z,819.01
2019-05-12T10:41:57.942Z,819.04
2019-05-12T10:42:57.954Z,819.01
2019-05-12T10:43:57.957Z,819.02
2019-05-12T10:44:57.965Z,819.17
2019-05-12T10:45:57.975Z,819.12
2019-05-12T10:46:57.982Z,819.14
2019-05-12T10:47:57.991Z,819.12
2019-05-12T10:48:58.000Z,819.11
2019-05-12T10:49:58.008Z,819.16
2019-05-12T10:50:58.017Z,819.19
2019-05-12T10:51:58.025Z,819.16
2019-05-12T10:52:58.034Z,819.05
2019-05-12T10:54:07.538Z,819.07
2019-05-12T10:54:58.062Z,819.09
2019-05-12T10:55:58.057Z,819.06
2019-05-12T10:56:58.068Z,819.07
2019-05-12T10:58:01.482Z,819.07
2019-05-12T10:58:58.085Z,819.09
2019-05-12T10:59:58.098Z,819.10
2019-05-12T11:01:06.278Z,819.03
2019-05-12T11:01:58.109Z,819.07
2019-05-12T11:03:01.468Z,819.08
2019-05-12T11:03:58.132Z,819.15
2019-05-12T11:04:58.138Z,819.11
2019-05-12T11:06:02.412Z,819.14
2019-05-12T11:06:58.156Z,819.14
2019-05-12T11:08:00.182Z,819.12
2019-05-12T11:08:58.175Z,819.14
2019-05-12T11:10:03.528Z,819.12
2019-05-12T11:11:01.103Z,819.19
2019-05-12T11:11:58.203Z,819.17
2019-05-12T11:12:59.127Z,819.17
2019-05-12T11:13:58.214Z,819.15
2019-05-12T11:15:01.239Z,819.14
2019-05-12T11:15:58.236Z,819.14
2019-05-12T11:17:02.119Z,819.13
2019-05-12T11:17:58.255Z,819.09
2019-05-12T11:19:00.312Z,819.13
2019-05-12T11:19:58.273Z,819.21
2019-05-12T11:20:58.280Z,819.20
2019-05-12T11:21:58.293Z,819.14
2019-05-12T11:22:58.297Z,819.13
2019-05-12T11:23:58.304Z,819.12
2019-05-12T11:24:58.315Z,819.07
2019-05-12T11:25:58.326Z,819.10
2019-05-12T11:26:58.331Z,819.08
2019-05-12T11:27:58.346Z,819.05
2019-05-12T11:28:58.351Z,819.07
2019-05-12T11:29:58.358Z,819.10
2019-05-12T11:30:58.368Z,819.12
2019-05-12T11:31:58.378Z,819.09
2019-05-12T11:32:59.854Z,819.06
2019-05-12T11:33:58.400Z,819.07
2019-05-12T11:34:58.407Z,819.10
2019-05-12T11:35:58.416Z,819.11
2019-05-12T11:36:58.423Z,819.08
2019-05-12T11:37:58.434Z,819.03
2019-05-12T11:38:58.445Z,819.05
2019-05-12T11:39:58.450Z,819.01
2019-05-12T11:40:58.459Z,818.94
2019-05-12T11:41:58.474Z,818.97
2019-05-12T11:43:00.891Z,819.01
2019-05-12T11:43:58.487Z,819.00
2019-05-12T11:44:58.497Z,818.97
2019-05-12T11:45:58.506Z,819.04
2019-05-12T11:46:58.518Z,819.03
2019-05-12T11:48:05.193Z,819.08
2019-05-12T11:48:58.536Z,819.06
2019-05-12T11:50:03.896Z,819.07
2019-05-12T11:50:58.557Z,819.05
2019-05-12T11:52:01.095Z,819.06
2019-05-12T11:52:58.574Z,819.04
2019-05-12T11:54:03.503Z,819.05
2019-05-12T11:54:58.593Z,819.10
2019-05-12T11:56:02.401Z,819.07
2019-05-12T11:56:58.610Z,819.07
2019-05-12T11:58:00.230Z,819.11
2019-05-12T11:58:58.628Z,819.11
2019-05-12T12:00:02.044Z,819.07
2019-05-12T12:01:03.817Z,819.10
2019-05-12T12:01:58.651Z,819.15
2019-05-12T12:03:03.843Z,819.17
2019-05-12T12:03:58.670Z,819.06
2019-05-12T12:04:58.688Z,819.12
2019-05-12T12:05:58.687Z,819.04
2019-05-12T12:06:58.700Z,819.16
2019-05-12T12:07:58.705Z,819.22
2019-05-12T12:08:58.716Z,819.00
2019-05-12T12:09:59.597Z,819.11
2019-05-12T12:10:58.731Z,819.08
2019-05-12T12:12:03.349Z,819.11
2019-05-12T12:12:58.752Z,819.09
2019-05-12T12:14:00.308Z,819.05
2019-05-12T12:14:58.770Z,819.09
2019-05-12T12:16:00.389Z,819.16
2019-05-12T12:16:58.787Z,819.14
2019-05-12T12:18:03.843Z,819.14
2019-05-12T12:19:02.806Z,819.17
2019-05-12T12:19:58.809Z,819.16
2019-05-12T12:21:04.243Z,819.12
2019-05-12T12:21:58.827Z,819.06
2019-05-12T12:23:00.078Z,819.16
2019-05-12T12:23:58.844Z,819.17
2019-05-12T12:25:04.626Z,819.16
2019-05-12T12:25:58.861Z,819.15
2019-05-12T12:26:58.875Z,819.13
2019-05-12T12:27:58.880Z,819.15
2019-05-12T12:28:58.893Z,819.14